Time;durP1;ratioP1;P1;durP2;ratioP2;P2;SDS_P1;SDS_P2;PMS_P1;PMS_P2;Temp;Humidity;BMP_temperature;BMP_pressure;BME280_temperature;BME280_humidity;BME280_pressure;Samples;Min_cycle;Max_cycle;Signal;HPM_P1;HPM_P2
2022/07/30 00:02:22;;;;;;;7.95;6.25;;;20.70;99.90;;;;;;5045170;28;20029;-84
2022/07/30 00:04:48;;;;;;;8.23;5.90;;;20.70;99.90;;;;;;5044527;28;20044;-84
2022/07/30 00:07:14;;;;;;;8.68;5.93;;;20.70;99.90;;;;;;5046262;28;20056;-85
2022/07/30 00:09:40;;;;;;;8.20;5.70;;;20.70;99.90;;;;;;5047170;28;20052;-83
2022/07/30 00:12:07;;;;;;;7.97;4.82;;;20.70;99.90;;;;;;5046014;28;20029;-85
2022/07/30 00:14:36;;;;;;;9.23;5.70;;;20.60;99.90;;;;;;5045768;28;20025;-85
2022/07/30 00:17:03;;;;;;;6.65;4.72;;;20.60;99.90;;;;;;5050170;28;20036;-84
2022/07/30 00:19:29;;;;;;;7.03;4.65;;;20.60;99.90;;;;;;5049335;28;20052;-82
2022/07/30 00:21:55;;;;;;;5.65;4.00;;;20.60;99.90;;;;;;5049734;28;20029;-85
2022/07/30 00:24:21;;;;;;;5.82;3.85;;;20.70;99.90;;;;;;5052719;28;20063;-83
2022/07/30 00:26:47;;;;;;;6.85;3.45;;;20.70;99.90;;;;;;5055003;28;20033;-83
2022/07/30 00:29:13;;;;;;;5.20;3.03;;;20.60;99.90;;;;;;5054874;28;20029;-85
2022/07/30 00:31:39;;;;;;;4.10;2.60;;;20.60;99.90;;;;;;5048191;28;20040;-84
2022/07/30 00:34:05;;;;;;;3.10;2.40;;;20.60;99.90;;;;;;5047021;28;20346;-85
2022/07/30 00:36:31;;;;;;;3.15;2.60;;;20.60;99.90;;;;;;5047228;28;20454;-84
2022/07/30 00:38:57;;;;;;;5.43;2.33;;;20.60;99.90;;;;;;5053247;28;20033;-82
2022/07/30 00:41:24;;;;;;;2.42;2.10;;;20.50;99.90;;;;;;5049733;28;20038;-82
2022/07/30 00:43:50;;;;;;;2.58;2.33;;;20.60;99.90;;;;;;5056374;28;20029;-81
2022/07/30 00:46:16;;;;;;;6.00;2.10;;;20.50;99.90;;;;;;5057306;28;20033;-82
2022/07/30 00:48:42;;;;;;;3.45;2.10;;;20.50;99.90;;;;;;5057438;28;20017;-82
2022/07/30 00:51:08;;;;;;;3.50;1.90;;;20.50;99.90;;;;;;5055771;28;20034;-84
2022/07/30 00:53:35;;;;;;;2.17;1.98;;;20.50;99.90;;;;;;5055948;28;20017;-81
2022/07/30 00:56:01;;;;;;;2.28;1.92;;;20.40;99.90;;;;;;5055133;28;20038;-85
2022/07/30 00:58:27;;;;;;;5.03;1.98;;;20.40;99.90;;;;;;5057498;28;20037;-82
2022/07/30 01:00:53;;;;;;;2.65;2.20;;;20.40;99.90;;;;;;5057298;28;20080;-82
2022/07/30 01:03:19;;;;;;;2.17;1.75;;;20.40;99.90;;;;;;5058214;28;20045;-81
2022/07/30 01:05:45;;;;;;;2.35;1.70;;;20.30;99.90;;;;;;5057494;28;20037;-82
2022/07/30 01:08:11;;;;;;;5.53;2.10;;;20.30;99.90;;;;;;5050649;28;20057;-84
2022/07/30 01:10:37;;;;;;;2.83;2.10;;;20.30;99.90;;;;;;5051370;28;20051;-83
2022/07/30 01:13:05;;;;;;;4.25;1.90;;;20.20;99.90;;;;;;5053592;28;20037;-83
2022/07/30 01:15:31;;;;;;;3.08;2.00;;;20.20;99.90;;;;;;5053827;28;20029;-86
2022/07/30 01:18:00;;;;;;;2.58;1.95;;;20.30;99.90;;;;;;5052332;28;20033;-83
2022/07/30 01:20:32;;;;;;;3.35;2.25;;;20.30;99.90;;;;;;5035125;28;20038;-83
2022/07/30 01:23:20;;;;;;;2.30;2.03;;;20.30;99.90;;;;;;5053367;28;20026;-85
2022/07/30 01:25:59;;;;;;;5.80;2.53;;;20.40;99.90;;;;;;5050751;28;20068;-84
2022/07/30 01:28:53;;;;;;;3.30;2.10;;;20.30;99.90;;;;;;5051471;28;20041;-85
2022/07/30 01:31:22;;;;;;;;;;;20.40;99.90;;;;;;5053511;28;20034;-85
2022/07/30 01:33:49;;;;;;;3.47;2.00;;;20.40;99.90;;;;;;5055547;28;20320;-83
2022/07/30 01:36:19;;;;;;;2.05;1.85;;;20.40;99.90;;;;;;5054404;28;20022;-82
2022/07/30 01:38:48;;;;;;;1.75;1.65;;;20.40;99.90;;;;;;5038066;28;20053;-84
2022/07/30 01:41:16;;;;;;;3.97;1.75;;;20.40;99.90;;;;;;5054158;28;20037;-86
2022/07/30 01:43:45;;;;;;;3.72;1.80;;;20.40;99.90;;;;;;5053290;28;20049;-86
2022/07/30 01:46:15;;;;;;;1.90;1.63;;;20.40;99.90;;;;;;5053992;28;20010;-84
2022/07/30 01:48:44;;;;;;;6.85;1.90;;;20.40;99.90;;;;;;5052391;28;20029;-86
2022/07/30 01:51:12;;;;;;;2.35;1.50;;;20.40;99.90;;;;;;5051559;28;20022;-85
2022/07/30 01:53:43;;;;;;;4.88;1.83;;;20.40;99.90;;;;;;5050957;28;20030;-84
2022/07/30 01:56:12;;;;;;;1.92;1.75;;;20.40;99.90;;;;;;5044225;28;20036;-85
2022/07/30 01:58:40;;;;;;;2.15;1.75;;;20.30;99.90;;;;;;5044501;28;20010;-85
2022/07/30 02:01:20;;;;;;;2.20;1.90;;;20.30;99.90;;;;;;5050386;28;20038;-85
2022/07/30 02:03:46;;;;;;;2.20;1.70;;;20.40;99.90;;;;;;5053036;28;20030;-85
2022/07/30 02:06:20;;;;;;;2.30;1.67;;;20.40;99.90;;;;;;5053733;28;20022;-84
2022/07/30 02:09:00;;;;;;;4.10;1.63;;;20.30;99.90;;;;;;5041442;28;20026;-83
2022/07/30 02:14:28;;;;;;;1.80;1.65;;;20.30;99.90;;;;;;5060309;28;20085;-86
2022/07/30 02:16:57;;;;;;;2.03;1.67;;;20.20;99.90;;;;;;5060873;28;20121;-84
2022/07/30 02:19:35;;;;;;;2.28;1.42;;;20.20;99.90;;;;;;5059736;28;20037;-86
2022/07/30 02:22:10;;;;;;;2.88;1.73;;;20.10;99.90;;;;;;5043838;28;20066;-87
2022/07/30 02:24:40;;;;;;;2.70;2.00;;;20.10;99.90;;;;;;5043966;28;20060;-85
2022/07/30 02:27:11;;;;;;;2.25;1.80;;;20.10;99.90;;;;;;5043760;28;20020;-85
2022/07/30 02:29:38;;;;;;;2.55;1.90;;;20.00;99.90;;;;;;5060116;28;20017;-84
2022/07/30 02:32:08;;;;;;;2.35;1.92;;;20.00;99.90;;;;;;5060351;28;20014;-85
2022/07/30 02:34:37;;;;;;;2.10;1.60;;;20.00;99.90;;;;;;5061354;28;20024;-84
2022/07/30 02:37:06;;;;;;;2.25;1.83;;;19.90;99.90;;;;;;5060480;28;20052;-85
2022/07/30 02:39:35;;;;;;;4.55;2.03;;;19.90;99.90;;;;;;5044007;28;20040;-84
2022/07/30 02:42:03;;;;;;;2.95;1.92;;;19.90;99.90;;;;;;5061011;28;20081;-84
2022/07/30 02:44:30;;;;;;;2.75;2.00;;;19.80;99.90;;;;;;5061073;28;20014;-85
2022/07/30 02:46:57;;;;;;;5.88;2.55;;;19.70;99.90;;;;;;5060373;28;20040;-84
2022/07/30 02:49:51;;;;;;;3.00;2.40;;;19.70;99.90;;;;;;5059548;28;20029;-83
2022/07/30 02:52:17;;;;;;;4.32;2.20;;;19.70;99.90;;;;;;5043419;28;20440;-83
2022/07/30 02:54:44;;;;;;;3.53;2.42;;;19.70;99.90;;;;;;5060605;28;20040;-84
2022/07/30 02:57:13;;;;;;;3.72;2.75;;;19.60;99.90;;;;;;5060627;28;20018;-84
2022/07/30 02:59:40;;;;;;;2.92;2.47;;;19.60;99.90;;;;;;5059574;28;20049;-85
2022/07/30 03:02:09;;;;;;;6.90;3.15;;;19.60;99.90;;;;;;5059747;28;20084;-85
2022/07/30 03:04:37;;;;;;;4.93;3.10;;;19.60;99.90;;;;;;5059844;28;20041;-85
2022/07/30 03:07:05;;;;;;;6.15;3.53;;;19.60;99.90;;;;;;5058860;28;20017;-85
2022/07/30 03:09:34;;;;;;;4.53;3.13;;;19.50;99.90;;;;;;5056876;28;20005;-86
2022/07/30 03:12:02;;;;;;;4.47;3.25;;;19.50;99.90;;;;;;5057433;28;20038;-86
2022/07/30 03:14:28;;;;;;;7.70;3.90;;;19.50;99.90;;;;;;5057373;28;20097;-86
2022/07/30 03:17:01;;;;;;;7.97;4.25;;;19.40;99.90;;;;;;5056997;28;20100;-85
2022/07/30 03:19:31;;;;;;;6.68;4.38;;;19.50;99.90;;;;;;5055590;28;20041;-87
2022/07/30 03:22:02;;;;;;;5.03;4.45;;;19.50;99.90;;;;;;5056963;28;20028;-86
2022/07/30 03:24:28;;;;;;;6.65;4.60;;;19.50;99.90;;;;;;5039751;28;20061;-85
2022/07/30 03:26:56;;;;;;;11.07;4.95;;;19.50;99.90;;;;;;5039407;28;20089;-84
2022/07/30 03:29:25;;;;;;;6.63;4.70;;;19.50;99.90;;;;;;5054873;28;20041;-85
2022/07/30 03:31:51;;;;;;;6.10;4.25;;;19.50;99.90;;;;;;5054772;28;20022;-86
2022/07/30 03:34:19;;;;;;;4.90;4.20;;;19.60;99.90;;;;;;5053830;28;20036;-85
2022/07/30 03:36:46;;;;;;;6.22;4.50;;;19.60;99.90;;;;;;5037022;28;20076;-85
2022/07/30 03:39:13;;;;;;;6.88;4.47;;;19.60;99.90;;;;;;5055382;28;20026;-85
2022/07/30 03:41:39;;;;;;;5.20;3.90;;;19.60;99.90;;;;;;5055011;28;20022;-85
2022/07/30 03:44:10;;;;;;;4.53;3.60;;;19.70;99.90;;;;;;5056987;28;20039;-84
2022/07/30 03:46:37;;;;;;;4.20;3.30;;;19.80;99.90;;;;;;5055280;28;20029;-86
2022/07/30 03:49:04;;;;;;;6.70;3.60;;;19.80;99.90;;;;;;5053344;28;20021;-84
2022/07/30 03:51:33;;;;;;;4.40;3.42;;;19.80;99.90;;;;;;5052439;28;20039;-84
2022/07/30 03:54:00;;;;;;;4.90;3.50;;;19.80;99.90;;;;;;5036509;28;20025;-86
2022/07/30 03:56:30;;;;;;;4.50;2.90;;;19.90;99.90;;;;;;5055646;28;20067;-85
2022/07/30 03:59:17;;;;;;;6.90;3.97;;;19.90;99.90;;;;;;5053560;28;20081;-85
2022/07/30 04:01:44;;;;;;;5.50;3.50;;;19.80;99.90;;;;;;5051795;28;20052;-86
2022/07/30 04:04:16;;;;;;;4.55;3.35;;;19.80;99.90;;;;;;5035461;28;20052;-85
2022/07/30 04:06:42;;;;;;;4.43;3.47;;;19.80;99.90;;;;;;5034482;28;20025;-85
2022/07/30 04:09:10;;;;;;;5.32;3.20;;;19.70;99.90;;;;;;5034257;28;20022;-84
2022/07/30 04:11:37;;;;;;;5.03;3.28;;;19.60;99.90;;;;;;5049294;28;20076;-84
2022/07/30 04:14:08;;;;;;;5.55;3.50;;;19.40;99.90;;;;;;5047836;28;20029;-86
2022/07/30 04:16:50;;;;;;;3.35;3.05;;;19.40;99.90;;;;;;5033483;28;20093;-84
2022/07/30 04:19:41;;;;;;;4.43;3.35;;;19.50;99.90;;;;;;5054992;22;20053;-82
2022/07/30 04:22:10;;;;;;;5.78;4.10;;;19.40;99.90;;;;;;5019182;28;20413;-82
2022/07/30 04:24:38;;;;;;;4.00;3.60;;;19.50;99.90;;;;;;5019947;28;20026;-81
2022/07/30 04:27:05;;;;;;;5.75;3.97;;;19.50;99.90;;;;;;5026166;28;20033;-81
2022/07/30 04:29:31;;;;;;;9.85;3.70;;;19.50;99.90;;;;;;5026315;28;20018;-80
2022/07/30 04:31:57;;;;;;;4.38;3.97;;;19.50;99.90;;;;;;5042018;28;20049;-82
2022/07/30 04:34:32;;;;;;;4.20;3.30;;;19.60;99.90;;;;;;5029448;28;20026;-80
2022/07/30 04:36:58;;;;;;;7.15;4.43;;;19.50;99.90;;;;;;5043356;28;20034;-80
2022/07/30 04:39:24;;;;;;;5.55;3.83;;;19.60;99.90;;;;;;5030160;28;20540;-82
2022/07/30 04:41:50;;;;;;;4.95;4.15;;;19.70;99.90;;;;;;5031462;28;20037;-80
2022/07/30 04:44:35;;;;;;;4.18;3.55;;;19.70;99.90;;;;;;5022618;28;20014;-80
2022/07/30 04:47:25;;;;;;;6.68;4.38;;;19.70;99.90;;;;;;5035745;28;20076;-82
2022/07/30 04:50:26;;;;;;;5.75;3.80;;;19.70;99.90;;;;;;5035935;28;20034;-82
2022/07/30 04:52:54;;;;;;;9.57;5.28;;;19.70;99.90;;;;;;5019759;28;20072;-82
2022/07/30 04:55:26;;;;;;;5.18;4.30;;;19.80;99.90;;;;;;5044916;28;20010;-81
2022/07/30 04:57:53;;;;;;;6.25;4.90;;;19.80;99.90;;;;;;5053714;28;20042;-81
2022/07/30 05:00:19;;;;;;;9.02;4.43;;;19.80;99.90;;;;;;5037436;28;20046;-79
2022/07/30 05:02:47;;;;;;;5.25;3.97;;;19.70;99.90;;;;;;5053466;28;20084;-81
2022/07/30 05:05:14;;;;;;;4.60;4.05;;;19.70;99.90;;;;;;5053948;28;20010;-81
2022/07/30 05:07:42;;;;;;;6.03;3.78;;;19.70;99.90;;;;;;5037178;28;20040;-79
2022/07/30 05:10:10;;;;;;;4.85;3.70;;;19.70;99.90;;;;;;5053423;28;20018;-80
2022/07/30 05:12:37;;;;;;;5.35;3.83;;;19.80;99.90;;;;;;5041086;28;20060;-81
2022/07/30 05:15:04;;;;;;;5.60;3.95;;;19.80;99.90;;;;;;5017467;28;20022;-84
2022/07/30 05:17:30;;;;;;;4.72;3.55;;;19.80;99.90;;;;;;5038260;28;20026;-82
2022/07/30 05:19:56;;;;;;;4.65;3.63;;;19.80;99.90;;;;;;5023091;28;20030;-84
2022/07/30 05:22:24;;;;;;;4.82;3.60;;;19.80;99.90;;;;;;5038796;28;20038;-82
2022/07/30 05:24:50;;;;;;;4.85;4.13;;;19.80;99.90;;;;;;5022625;28;20034;-81
2022/07/30 05:27:16;;;;;;;4.68;3.50;;;19.70;99.90;;;;;;5040006;28;20029;-81
2022/07/30 05:29:42;;;;;;;4.57;3.50;;;19.70;99.90;;;;;;5041273;28;20413;-83
2022/07/30 05:32:12;;;;;;;4.55;3.20;;;19.70;99.90;;;;;;5039263;28;20034;-81
2022/07/30 05:34:38;;;;;;;4.07;3.05;;;19.70;99.90;;;;;;5042354;28;20038;-82
2022/07/30 05:37:05;;;;;;;7.95;3.78;;;19.70;99.90;;;;;;5044879;28;20044;-81
2022/07/30 05:39:31;;;;;;;5.40;3.55;;;19.70;99.90;;;;;;5044345;28;20041;-81
2022/07/30 05:42:17;;;;;;;3.35;3.05;;;19.60;99.90;;;;;;5043644;28;20072;-83
2022/07/30 05:44:46;;;;;;;4.03;3.08;;;19.60;99.90;;;;;;5048460;28;20065;-81
2022/07/30 05:47:12;;;;;;;3.10;2.80;;;19.50;99.90;;;;;;5049214;28;20026;-81
2022/07/30 05:49:39;;;;;;;2.85;2.33;;;19.60;99.90;;;;;;5048050;28;20517;-82
2022/07/30 05:52:12;;;;;;;3.92;3.50;;;19.60;99.90;;;;;;5047122;28;20374;-81
2022/07/30 05:54:38;;;;;;;3.58;3.20;;;19.60;99.90;;;;;;5048904;28;20048;-80
2022/07/30 05:57:22;;;;;;;4.13;3.13;;;19.60;99.90;;;;;;5045745;28;20040;-81
2022/07/30 05:59:49;;;;;;;3.47;3.08;;;19.60;99.90;;;;;;5048177;28;20025;-81
2022/07/30 06:02:22;;;;;;;3.63;2.75;;;19.60;99.90;;;;;;5037348;28;20037;-81
2022/07/30 06:04:56;;;;;;;;;;;19.50;99.90;;;;;;5039310;28;20041;-81
2022/07/30 06:07:23;;;;;;;3.38;2.90;;;19.50;99.90;;;;;;5034780;28;19910;-82
2022/07/30 06:09:50;;;;;;;4.75;3.00;;;19.40;99.90;;;;;;5051426;28;20005;-81
2022/07/30 06:12:16;;;;;;;5.13;3.25;;;19.50;99.90;;;;;;5051106;28;20060;-81
2022/07/30 06:14:42;;;;;;;4.38;2.47;;;19.40;99.90;;;;;;5049230;28;20102;-82
2022/07/30 06:17:12;;;;;;;4.25;3.22;;;19.30;99.90;;;;;;5043348;28;20030;-82
2022/07/30 06:20:02;;;;;;;5.50;3.38;;;19.30;99.90;;;;;;5001433;28;20469;-81
2022/07/30 06:22:31;;;;;;;5.43;3.28;;;19.30;99.90;;;;;;5036510;28;20033;-82
2022/07/30 06:25:04;;;;;;;8.77;3.58;;;19.30;99.90;;;;;;5035259;28;20021;-83
2022/07/30 06:27:32;;;;;;;2.88;2.50;;;19.30;99.90;;;;;;5021824;28;20501;-81
2022/07/30 06:30:00;;;;;;;3.45;2.50;;;19.30;99.90;;;;;;5019466;28;20026;-81
2022/07/30 06:32:26;;;;;;;5.75;2.50;;;19.20;99.90;;;;;;5036029;28;20030;-83
2022/07/30 06:34:52;;;;;;;3.78;2.47;;;19.20;99.90;;;;;;5036207;28;20090;-82
2022/07/30 06:37:18;;;;;;;6.15;2.78;;;19.20;99.90;;;;;;5020758;28;20486;-80
2022/07/30 06:39:44;;;;;;;4.80;2.40;;;19.20;99.90;;;;;;5034278;28;20049;-83
2022/07/30 06:42:19;;;;;;;3.92;2.58;;;19.20;99.90;;;;;;5036354;28;20490;-84
2022/07/30 06:45:03;;;;;;;5.57;2.43;;;19.20;99.90;;;;;;5021425;28;20041;-82
2022/07/30 06:47:49;;;;;;;4.47;2.50;;;19.20;99.90;;;;;;5032157;28;20273;-82
2022/07/30 06:50:17;;;;;;;3.45;2.30;;;19.20;99.90;;;;;;5041427;28;20513;-82
2022/07/30 06:52:43;;;;;;;4.70;2.40;;;19.20;99.90;;;;;;5036383;28;20029;-82
2022/07/30 06:55:09;;;;;;;4.60;2.40;;;19.20;99.90;;;;;;5035943;28;20101;-82
2022/07/30 06:57:42;;;;;;;3.97;2.22;;;19.20;99.90;;;;;;5043735;28;20114;-82
2022/07/30 07:00:28;;;;;;;3.17;2.10;;;19.20;99.90;;;;;;5033803;28;20113;-83
2022/07/30 07:02:55;;;;;;;2.20;2.00;;;19.20;99.90;;;;;;5035910;28;20117;-82
2022/07/30 07:05:33;;;;;;;5.38;3.10;;;19.20;99.90;;;;;;5043942;28;20109;-82
2022/07/30 07:07:59;;;;;;;3.22;2.33;;;19.20;99.90;;;;;;5029772;28;20029;-81
2022/07/30 07:10:27;;;;;;;3.97;2.40;;;19.20;99.90;;;;;;5037441;28;20089;-82
2022/07/30 07:13:13;;;;;;;2.92;2.20;;;19.30;99.90;;;;;;5038008;28;20449;-82
2022/07/30 07:15:39;;;;;;;3.53;2.42;;;19.30;99.90;;;;;;5039643;28;20061;-84
2022/07/30 07:18:11;;;;;;;2.70;1.90;;;19.30;99.90;;;;;;5036922;28;20033;-82
2022/07/30 07:20:38;;;;;;;1.75;1.52;;;19.30;99.90;;;;;;5034972;28;20030;-82
2022/07/30 07:23:07;;;;;;;2.10;1.90;;;19.30;99.90;;;;;;5035432;28;20061;-82
2022/07/30 07:25:33;;;;;;;3.85;2.25;;;19.30;99.90;;;;;;5040517;28;20025;-83
2022/07/30 07:27:59;;;;;;;3.08;1.90;;;19.40;99.90;;;;;;5036631;28;20049;-85
2022/07/30 07:30:24;;;;;;;2.80;2.25;;;19.40;99.90;;;;;;5035237;28;20121;-84
2022/07/30 07:32:50;;;;;;;2.47;2.17;;;19.50;99.90;;;;;;5036071;28;20026;-83
2022/07/30 07:35:16;;;;;;;2.47;2.03;;;19.50;99.90;;;;;;5036344;28;20030;-85
2022/07/30 07:37:46;;;;;;;2.30;2.00;;;19.60;99.90;;;;;;5038601;28;20026;-83
2022/07/30 07:40:19;;;;;;;8.73;2.30;;;19.60;99.90;;;;;;5047093;28;20092;-83
2022/07/30 07:42:45;;;;;;;2.47;2.10;;;19.70;99.90;;;;;;5048093;28;20036;-81
2022/07/30 07:45:12;;;;;;;3.17;2.40;;;19.70;99.90;;;;;;5036950;28;20022;-84
2022/07/30 07:47:49;;;;;;;1.88;1.70;;;19.70;99.90;;;;;;5043265;28;20030;-84
2022/07/30 07:50:35;;;;;;;3.80;2.05;;;19.80;99.90;;;;;;5030344;28;20068;-81
2022/07/30 07:53:02;;;;;;;2.17;1.98;;;19.80;99.90;;;;;;5038782;28;20037;-82
2022/07/30 07:55:29;;;;;;;5.13;2.38;;;19.90;99.90;;;;;;5036164;28;20029;-84
2022/07/30 07:57:54;;;;;;;2.53;1.85;;;19.90;99.90;;;;;;5036091;28;20505;-84
2022/07/30 08:00:20;;;;;;;2.42;1.92;;;19.90;99.90;;;;;;5035279;28;20025;-83
2022/07/30 08:02:47;;;;;;;3.63;1.73;;;20.00;99.90;;;;;;5036754;28;20037;-85
2022/07/30 08:05:14;;;;;;;2.55;2.00;;;20.00;99.90;;;;;;5043600;28;20033;-83
2022/07/30 08:08:00;;;;;;;2.97;2.17;;;20.10;99.90;;;;;;5029234;28;20038;-81
2022/07/30 08:10:29;;;;;;;2.63;2.00;;;20.10;99.90;;;;;;5029374;28;20212;-83
2022/07/30 08:13:14;;;;;;;6.95;2.38;;;20.10;99.90;;;;;;5029338;28;20093;-82
2022/07/30 08:16:00;;;;;;;4.15;2.20;;;20.10;99.90;;;;;;5026860;28;20056;-83
2022/07/30 08:19:01;;;;;;;5.15;2.40;;;20.10;99.90;;;;;;5029032;28;20076;-85
2022/07/30 08:21:33;;;;;;;3.13;2.33;;;20.20;99.90;;;;;;5039065;28;20137;-83
2022/07/30 08:23:59;;;;;;;2.63;2.35;;;20.20;99.90;;;;;;5040078;28;20040;-86
2022/07/30 08:26:25;;;;;;;2.72;2.30;;;20.30;99.90;;;;;;5023874;28;20033;-82
2022/07/30 08:28:51;;;;;;;3.15;2.42;;;20.30;99.90;;;;;;5024178;28;20493;-83
2022/07/30 08:31:17;;;;;;;2.42;2.22;;;20.30;99.90;;;;;;5040519;28;20026;-83
2022/07/30 08:33:44;;;;;;;4.15;2.40;;;20.40;99.90;;;;;;5044851;28;20046;-82
2022/07/30 08:36:10;;;;;;;4.13;2.55;;;20.50;99.90;;;;;;5046092;28;20433;-82
2022/07/30 08:38:38;;;;;;;5.20;3.10;;;20.60;99.90;;;;;;5049218;28;20106;-82
2022/07/30 08:41:06;;;;;;;3.67;2.33;;;20.60;99.90;;;;;;5046545;28;20053;-82
2022/07/30 08:43:34;;;;;;;4.15;2.38;;;20.60;99.90;;;;;;5041611;28;20040;-83
2022/07/30 08:46:01;;;;;;;4.55;2.65;;;20.70;99.90;;;;;;5046285;28;20049;-81
2022/07/30 08:48:51;;;;;;;4.00;2.50;;;20.70;99.90;;;;;;5033105;28;20033;-82
2022/07/30 08:51:18;;;;;;;2.83;2.60;;;20.80;99.90;;;;;;5045324;28;20033;-83
2022/07/30 08:54:05;;;;;;;3.17;2.30;;;20.80;99.90;;;;;;5031233;28;20094;-85
2022/07/30 08:56:33;;;;;;;3.67;2.58;;;21.00;99.90;;;;;;5047290;28;20057;-83
2022/07/30 08:58:59;;;;;;;3.17;2.28;;;20.90;99.90;;;;;;5029515;28;20093;-81
2022/07/30 09:01:26;;;;;;;6.00;2.70;;;20.90;99.90;;;;;;5045308;28;20117;-84
2022/07/30 09:03:55;;;;;;;3.72;2.50;;;20.90;99.90;;;;;;5027259;28;20041;-83
2022/07/30 09:06:21;;;;;;;4.82;2.80;;;20.90;99.90;;;;;;5028683;28;20034;-83
2022/07/30 09:08:47;;;;;;;5.82;4.45;;;20.90;99.90;;;;;;5042838;28;20021;-81
2022/07/30 09:11:13;;;;;;;3.33;2.88;;;21.00;99.90;;;;;;5041815;28;20025;-82
2022/07/30 09:13:41;;;;;;;4.22;2.55;;;20.90;99.90;;;;;;5040091;28;20046;-82
2022/07/30 09:16:21;;;;;;;4.38;2.58;;;20.80;99.90;;;;;;5034608;28;20501;-83
2022/07/30 09:18:48;;;;;;;4.15;2.60;;;20.80;99.90;;;;;;5035099;28;20030;-83
2022/07/30 09:21:27;;;;;;;5.85;4.05;;;20.80;99.90;;;;;;5048794;28;20042;-80
2022/07/30 09:24:12;;;;;;;4.05;2.90;;;20.80;99.90;;;;;;5051791;28;20045;-83
2022/07/30 09:26:59;;;;;;;3.58;2.83;;;20.80;99.90;;;;;;5035948;28;20040;-83
2022/07/30 09:29:47;;;;;;;6.63;3.50;;;20.80;99.90;;;;;;5035541;28;20041;-81
2022/07/30 09:32:54;;;;;;;4.00;2.80;;;20.90;99.90;;;;;;5020018;28;20014;-81
2022/07/30 09:35:32;;;;;;;3.85;3.33;;;21.00;99.90;;;;;;5036440;28;20064;-81
2022/07/30 09:38:11;;;;;;;3.92;3.00;;;21.00;99.90;;;;;;5034247;28;20049;-82
2022/07/30 09:40:56;;;;;;;5.00;3.17;;;21.00;99.90;;;;;;5033978;28;20042;-81
2022/07/30 09:43:43;;;;;;;5.20;3.38;;;21.00;99.90;;;;;;5038702;28;20060;-83
2022/07/30 09:46:18;;;;;;;4.00;2.97;;;21.10;99.90;;;;;;5051103;28;20049;-83
2022/07/30 09:48:47;;;;;;;4.40;3.55;;;21.30;99.90;;;;;;5035217;28;20077;-81
2022/07/30 09:51:13;;;;;;;4.93;3.20;;;21.30;99.90;;;;;;5050985;28;20040;-82
2022/07/30 09:54:11;;;;;;;15.85;8.13;;;21.20;99.90;;;;;;5026334;28;20094;-83
2022/07/30 09:56:38;;;;;;;6.07;3.42;;;21.40;99.90;;;;;;4979034;28;20183;-83
2022/07/30 09:59:06;;;;;;;7.07;4.00;;;21.60;99.90;;;;;;5020162;28;20030;-83
2022/07/30 10:01:52;;;;;;;5.35;3.83;;;21.80;99.90;;;;;;5035946;28;20033;-83
2022/07/30 10:04:37;;;;;;;5.22;3.65;;;22.00;99.90;;;;;;5027192;28;20048;-82
2022/07/30 10:07:20;;;;;;;5.47;3.83;;;21.80;99.90;;;;;;5048280;28;20030;-82
2022/07/30 10:09:47;;;;;;;4.28;3.80;;;22.00;99.90;;;;;;5034301;28;20056;-81
2022/07/30 10:12:14;;;;;;;5.80;4.13;;;22.20;99.90;;;;;;5050580;28;20098;-81
2022/07/30 10:14:48;;;;;;;7.40;3.97;;;22.30;99.90;;;;;;5036988;28;20037;-83
2022/07/30 10:17:18;;;;;;;7.05;3.70;;;22.50;99.90;;;;;;5034047;28;20030;-82
2022/07/30 10:20:07;;;;;;;4.25;3.85;;;22.70;99.90;;;;;;5051695;23;20120;-84
2022/07/30 10:22:52;;;;;;;6.38;3.85;;;22.90;99.90;;;;;;5094900;28;20093;-84
2022/07/30 10:25:33;;;;;;;4.13;3.72;;;23.00;99.90;;;;;;5091466;28;20455;-87
2022/07/30 10:28:26;;;;;;;6.88;4.25;;;23.10;99.90;;;;;;5073950;28;20385;-88
2022/07/30 10:30:54;;;;;;;8.50;4.40;;;23.30;99.90;;;;;;5090955;28;20024;-86
2022/07/30 10:33:22;;;;;;;6.90;3.85;;;23.50;99.90;;;;;;5094392;28;20000;-87
2022/07/30 10:35:48;;;;;;;4.50;3.63;;;23.90;99.90;;;;;;5093750;28;20060;-85
2022/07/30 10:38:16;;;;;;;7.88;3.80;;;24.10;99.90;;;;;;5095392;28;20024;-86
2022/07/30 10:40:57;;;;;;;5.22;4.28;;;24.50;99.90;;;;;;5092445;28;20043;-86
2022/07/30 10:43:42;;;;;;;5.70;4.10;;;25.00;99.90;;;;;;5071387;28;20052;-86
2022/07/30 10:46:34;;;;;;;4.47;3.95;;;25.80;99.90;;;;;;5086601;28;20040;-85
2022/07/30 10:49:14;;;;;;;6.30;4.05;;;26.00;99.90;;;;;;5055710;28;20037;-85
2022/07/30 10:51:45;;;;;;;5.63;4.20;;;26.00;99.90;;;;;;5086422;28;20061;-86
2022/07/30 10:54:37;;;;;;;6.78;4.30;;;26.10;99.90;;;;;;5086228;28;20032;-85
2022/07/30 10:57:19;;;;;;;5.75;4.55;;;26.00;99.90;;;;;;5080783;28;20060;-85
2022/07/30 10:59:54;;;;;;;5.18;4.20;;;25.80;99.90;;;;;;5085241;28;20050;-85
2022/07/30 11:02:25;;;;;;;4.80;4.18;;;25.50;99.90;;;;;;5083696;28;20032;-88
2022/07/30 11:05:18;;;;;;;5.28;4.25;;;25.70;99.90;;;;;;5086933;28;20035;-87
2022/07/30 11:07:46;;;;;;;7.63;4.90;;;25.50;99.90;;;;;;5088903;28;20058;-86
2022/07/30 11:10:34;;;;;;;7.85;4.78;;;25.50;99.90;;;;;;5070348;28;20021;-88
2022/07/30 11:13:00;;;;;;;6.05;4.38;;;25.60;99.90;;;;;;5084707;28;20044;-87
2022/07/30 11:15:57;;;;;;;12.65;4.53;;;25.80;99.90;;;;;;5086411;28;20036;-86
2022/07/30 11:18:26;;;;;;;8.98;4.40;;;25.80;99.90;;;;;;5086108;28;20043;-86
2022/07/30 11:21:19;;;;;;;6.38;5.35;;;26.90;99.90;;;;;;5067906;28;20029;-87
2022/07/30 11:23:45;;;;;;;4.95;4.10;;;28.50;99.90;;;;;;5084947;28;20048;-85
2022/07/30 11:26:37;;;;;;;5.93;4.05;;;29.10;99.90;;;;;;5068046;28;20114;-85
2022/07/30 11:29:04;;;;;;;5.60;3.90;;;30.50;98.90;;;;;;5073788;28;20444;-86
2022/07/30 11:31:37;;;;;;;5.22;4.00;;;31.60;96.80;;;;;;5085045;28;20111;-87
2022/07/30 11:34:18;;;;;;;4.22;3.60;;;31.90;95.30;;;;;;5091848;28;20079;-86
2022/07/30 11:37:03;;;;;;;4.93;3.13;;;32.60;94.30;;;;;;5092697;28;20033;-86
2022/07/30 11:39:48;;;;;;;;;;;32.50;93.10;;;;;;5098403;28;20040;-85
2022/07/30 11:42:34;;;;;;;4.53;3.42;;;32.60;92.60;;;;;;5097943;28;19984;-84
2022/07/30 11:45:15;;;;;;;4.45;3.25;;;33.70;91.90;;;;;;5097958;28;20085;-83
2022/07/30 11:47:46;;;;;;;6.20;3.03;;;34.10;90.20;;;;;;5097820;28;20039;-83
2022/07/30 11:50:31;;;;;;;5.28;3.22;;;32.60;91.10;;;;;;5097747;28;20038;-84
2022/07/30 11:53:06;;;;;;;4.28;3.20;;;31.10;92.40;;;;;;5097647;28;20062;-83
2022/07/30 11:55:37;;;;;;;5.18;3.75;;;30.20;93.90;;;;;;5097388;28;20020;-84
2022/07/30 11:58:09;;;;;;;5.38;3.50;;;29.30;95.20;;;;;;5097436;28;20096;-84
2022/07/30 12:00:39;;;;;;;6.45;3.97;;;29.10;95.40;;;;;;5079188;28;20059;-86
2022/07/30 12:03:14;;;;;;;5.43;3.67;;;28.70;95.70;;;;;;5090202;28;20025;-84
2022/07/30 12:05:40;;;;;;;4.95;3.72;;;28.50;96.60;;;;;;5072744;28;20033;-84
2022/07/30 12:08:07;;;;;;;5.80;4.07;;;28.60;96.60;;;;;;5086291;28;20039;-86
2022/07/30 12:10:38;;;;;;;5.90;4.55;;;28.00;97.30;;;;;;5085938;28;20067;-86
2022/07/30 12:13:13;;;;;;;5.65;4.72;;;27.40;98.10;;;;;;5068092;28;20052;-86
2022/07/30 12:15:45;;;;;;;5.30;4.60;;;27.10;98.90;;;;;;5083543;28;20029;-85
2022/07/30 12:18:12;;;;;;;5.15;4.35;;;27.10;98.80;;;;;;5067652;28;20046;-84
2022/07/30 12:20:39;;;;;;;4.90;4.15;;;27.20;98.80;;;;;;5068621;28;20538;-86
2022/07/30 12:23:24;;;;;;;7.63;4.50;;;27.10;98.90;;;;;;5083455;28;20058;-84
2022/07/30 12:25:50;;;;;;;6.40;4.57;;;27.00;99.10;;;;;;5067353;28;20032;-85
2022/07/30 12:28:28;;;;;;;7.32;4.97;;;27.00;99.50;;;;;;5083558;28;20042;-86
2022/07/30 12:30:55;;;;;;;6.28;4.63;;;26.60;99.90;;;;;;5084056;28;20057;-85
2022/07/30 12:33:22;;;;;;;7.20;4.82;;;26.50;99.90;;;;;;5071686;28;20036;-86
2022/07/30 12:35:51;;;;;;;5.05;4.55;;;26.10;99.90;;;;;;5092625;28;20051;-86
2022/07/30 12:38:18;;;;;;;9.20;4.72;;;25.80;99.90;;;;;;5092047;28;20309;-86
2022/07/30 12:41:04;;;;;;;9.13;4.68;;;25.60;99.90;;;;;;5076210;28;20044;-82
2022/07/30 12:43:48;;;;;;;5.10;4.60;;;25.50;99.90;;;;;;5092257;28;20017;-86
2022/07/30 12:46:21;;;;;;;8.07;4.57;;;25.50;99.90;;;;;;5085601;28;20036;-86
2022/07/30 12:49:01;;;;;;;6.05;4.65;;;25.50;99.90;;;;;;5085425;28;20048;-85
2022/07/30 12:51:36;;;;;;;7.65;4.07;;;25.70;99.90;;;;;;5067833;28;20028;-84
2022/07/30 12:54:16;;;;;;;4.70;3.70;;;25.90;99.90;;;;;;5085275;28;20028;-85
2022/07/30 12:57:02;;;;;;;5.78;4.30;;;26.30;99.90;;;;;;5069966;28;20067;-85
2022/07/30 12:59:30;;;;;;;4.88;3.92;;;26.70;99.90;;;;;;5086745;28;20048;-86
2022/07/30 13:01:58;;;;;;;6.22;3.97;;;27.00;99.90;;;;;;5070076;28;20042;-86
2022/07/30 13:04:25;;;;;;;5.43;3.60;;;27.20;99.80;;;;;;5086860;28;20024;-85
2022/07/30 13:07:11;;;;;;;6.70;4.07;;;27.30;99.70;;;;;;5087607;28;20096;-87
2022/07/30 13:09:41;;;;;;;5.28;4.15;;;27.50;99.40;;;;;;5093298;28;20031;-85
2022/07/30 13:12:12;;;;;;;5.25;4.13;;;27.50;99.00;;;;;;5096156;28;20230;-84
2022/07/30 13:14:38;;;;;;;5.65;3.95;;;27.40;99.20;;;;;;5096866;28;20076;-85
2022/07/30 13:17:04;;;;;;;4.25;3.85;;;27.30;99.30;;;;;;5091804;28;20083;-86